Time;durP1;ratioP1;P1;durP2;ratioP2;P2;SDS_P1;SDS_P2;PMS_P1;PMS_P2;Temp;Humidity;BMP_temperature;BMP_pressure;BME280_temperature;BME280_humidity;BME280_pressure;Samples;Min_cycle;Max_cycle;Signal;HPM_P1;HPM_P2
2023/08/05 00:00:04;;;;;;;;;;;;;;;22.03;100.00;97563.88;5142894;28;19924;-71
2023/08/05 00:02:31;;;;;;;;;;;;;;;21.75;100.00;97563.03;5121942;28;19946;-71
2023/08/05 00:04:57;;;;;;;;;;;;;;;21.85;100.00;97565.25;5140012;28;19924;-72
2023/08/05 00:07:24;;;;;;;;;;;;;;;22.02;100.00;97554.13;5121966;28;19924;-73
2023/08/05 00:09:51;;;;;;;;;;;;;;;22.14;100.00;97559.50;5140040;28;19924;-70
2023/08/05 00:12:18;;;;;;;;;;;;;;;22.20;100.00;97549.97;5142457;28;19924;-71
2023/08/05 00:14:44;;;;;;;;;;;;;;;22.20;100.00;97558.13;5143226;28;19983;-71
2023/08/05 00:17:11;;;;;;;;;;;;;;;22.17;100.00;97558.81;5134472;28;19930;-73
2023/08/05 00:19:38;;;;;;;;;;;;;;;22.08;100.00;97555.47;5124958;27;20024;-71
2023/08/05 00:22:04;;;;;;;;;;;;;;;22.10;100.00;97555.13;5145433;27;19923;-71
2023/08/05 00:24:30;;;;;;;;;;;;;;;22.09;100.00;97550.81;5143309;27;19924;-71
2023/08/05 00:26:58;;;;;;;;;;;;;;;21.96;100.00;97553.59;5143094;27;20062;-71
2023/08/05 00:29:24;;;;;;;;;;;;;;;22.02;100.00;97556.84;5135001;28;19924;-72
2023/08/05 00:31:50;;;;;;;;;;;;;;;21.95;100.00;97559.34;5124709;28;19924;-71
2023/08/05 00:34:17;;;;;;;;;;;;;;;22.00;100.00;97554.44;5137007;27;19931;-72
2023/08/05 00:36:43;;;;;;;;;;;;;;;21.69;100.00;97548.88;5146622;27;19983;-70
2023/08/05 00:39:09;;;;;;;;;;;;;;;21.22;100.00;97548.59;5145116;27;19927;-71
2023/08/05 00:41:35;;;;;;;;;;;;;;;21.33;100.00;97549.72;5142870;27;19947;-71
2023/08/05 00:44:03;;;;;;;;;;;;;;;21.44;100.00;97563.66;5143441;27;19959;-73
2023/08/05 00:46:30;;;;;;;;;;;;;;;21.50;100.00;97560.34;5141542;27;19935;-72
2023/08/05 00:48:56;;;;;;;;;;;;;;;21.59;100.00;97559.41;5142763;27;20083;-72
2023/08/05 00:51:22;;;;;;;;;;;;;;;21.61;100.00;97552.50;5127915;27;19974;-72
2023/08/05 00:53:49;;;;;;;;;;;;;;;21.67;100.00;97547.63;5146190;27;19978;-72
2023/08/05 00:56:16;;;;;;;;;;;;;;;21.72;100.00;97550.91;5143567;27;19969;-72
2023/08/05 00:58:43;;;;;;;;;;;;;;;21.64;100.00;97540.16;5142556;27;19978;-72
2023/08/05 01:01:11;;;;;;;;;;;;;;;21.41;100.00;97548.03;5144069;27;19927;-73
2023/08/05 01:03:37;;;;;;;;;;;;;;;21.34;100.00;97545.88;5145939;27;20006;-72
2023/08/05 01:06:05;;;;;;;;;;;;;;;21.44;100.00;97548.13;5146568;27;19966;-70
2023/08/05 01:08:32;;;;;;;;;;;;;;;21.55;100.00;97548.44;5145905;27;19934;-70
2023/08/05 01:10:59;;;;;;;;;;;;;;;21.65;100.00;97547.97;5145817;27;19970;-70
2023/08/05 01:13:26;;;;;;;;;;;;;;;21.76;100.00;97545.56;5123895;28;19930;-71
2023/08/05 01:15:52;;;;;;;;;;;;;;;21.82;100.00;97546.91;5141936;27;19955;-71
2023/08/05 01:18:19;;;;;;;;;;;;;;;21.83;100.00;97534.91;5142167;27;19966;-71
2023/08/05 01:20:47;;;;;;;;;;;;;;;21.82;100.00;97536.03;5142247;27;19970;-71
2023/08/05 01:23:14;;;;;;;;;;;;;;;21.73;100.00;97538.09;5144148;27;19983;-71
2023/08/05 01:25:42;;;;;;;;;;;;;;;21.78;100.00;97535.94;5145404;27;19970;-71
2023/08/05 01:28:09;;;;;;;;;;;;;;;21.74;100.00;97517.94;5143895;27;19999;-71
2023/08/05 01:30:36;;;;;;;;;;;;;;;21.58;100.00;97517.88;5141998;27;19931;-71
2023/08/05 01:33:03;;;;;;;;;;;;;;;21.69;100.00;97520.91;5142277;27;19992;-71
2023/08/05 01:35:29;;;;;;;;;;;;;;;21.71;100.00;97521.34;5145184;27;20006;-71
2023/08/05 01:37:56;;;;;;;;;;;;;;;21.76;100.00;97515.66;5145273;27;19959;-71
2023/08/05 01:40:27;;;;;;;;;;;;;;;21.67;100.00;97515.00;5141637;27;19955;-72
2023/08/05 01:42:55;;;;;;;;;;;;;;;21.65;100.00;97514.56;5141503;27;19942;-71
2023/08/05 01:45:21;;;;;;;;;;;;;;;21.67;100.00;97504.13;5141427;27;19991;-71
2023/08/05 01:47:48;;;;;;;;;;;;;;;21.61;100.00;97505.50;5140087;27;19934;-72
2023/08/05 01:50:14;;;;;;;;;;;;;;;21.65;100.00;97507.22;5142650;27;19958;-72
2023/08/05 01:52:40;;;;;;;;;;;;;;;21.66;100.00;97499.84;5141477;27;19966;-71
2023/08/05 01:55:07;;;;;;;;;;;;;;;21.67;100.00;97490.53;5142525;27;19931;-71
2023/08/05 01:57:33;;;;;;;;;;;;;;;21.65;100.00;97492.81;5144995;27;19963;-71
2023/08/05 02:00:01;;;;;;;;;;;;;;;21.66;100.00;97480.84;5144744;27;19955;-72
2023/08/05 02:02:27;;;;;;;;;;;;;;;21.71;100.00;97475.13;5141109;27;19924;-71
2023/08/05 02:04:53;;;;;;;;;;;;;;;21.74;100.00;97472.53;5141362;27;19930;-72
2023/08/05 02:07:20;;;;;;;;;;;;;;;21.65;100.00;97469.16;5144216;27;19927;-72
2023/08/05 02:09:46;;;;;;;;;;;;;;;21.42;100.00;97463.44;5144703;27;19929;-72
2023/08/05 02:12:13;;;;;;;;;;;;;;;21.36;100.00;97464.81;5124215;27;19923;-72
2023/08/05 02:14:39;;;;;;;;;;;;;;;21.36;100.00;97472.97;5141133;27;19928;-71
2023/08/05 02:17:07;;;;;;;;;;;;;;;21.22;100.00;97478.00;5133699;27;19923;-72
2023/08/05 02:19:33;;;;;;;;;;;;;;;21.01;100.00;97475.38;5144375;27;19935;-72
2023/08/05 02:22:00;;;;;;;;;;;;;;;21.07;100.00;97477.88;5144254;27;19927;-72
2023/08/05 02:24:26;;;;;;;;;;;;;;;21.26;100.00;97487.03;5140756;27;19923;-72
2023/08/05 02:26:52;;;;;;;;;;;;;;;21.35;100.00;97490.41;5140650;27;19935;-72
2023/08/05 02:29:19;;;;;;;;;;;;;;;21.40;100.00;97492.91;5143905;27;19959;-72
2023/08/05 02:31:45;;;;;;;;;;;;;;;21.13;100.00;97488.19;5144349;27;19923;-72
2023/08/05 02:34:13;;;;;;;;;;;;;;;21.12;100.00;97492.03;5142222;27;19924;-72
2023/08/05 02:36:39;;;;;;;;;;;;;;;21.21;100.00;97484.56;5140620;27;20417;-71
2023/08/05 02:39:05;;;;;;;;;;;;;;;21.04;100.00;97481.28;5141688;27;19962;-72
2023/08/05 02:41:32;;;;;;;;;;;;;;;21.15;100.00;97485.13;5125725;27;19930;-72
2023/08/05 02:43:58;;;;;;;;;;;;;;;21.26;100.00;97475.41;5143399;27;19934;-72
2023/08/05 02:46:24;;;;;;;;;;;;;;;21.26;100.00;97478.13;5131759;28;19991;-72
2023/08/05 02:48:51;;;;;;;;;;;;;;;21.06;100.00;97466.22;5140071;27;20025;-72
2023/08/05 02:51:18;;;;;;;;;;;;;;;21.10;100.00;97466.38;5142994;27;19923;-71
2023/08/05 02:53:45;;;;;;;;;;;;;;;20.97;100.00;97473.69;5143645;27;19923;-71
2023/08/05 02:56:11;;;;;;;;;;;;;;;20.91;100.00;97480.50;5141783;27;19924;-71
2023/08/05 02:58:37;;;;;;;;;;;;;;;21.06;100.00;97481.72;5140115;27;19955;-71
2023/08/05 03:01:07;;;;;;;;;;;;;;;20.81;100.00;97481.72;5141045;27;20081;-71
2023/08/05 03:03:33;;;;;;;;;;;;;;;20.81;100.00;97503.44;5143865;27;19933;-71
2023/08/05 03:06:00;;;;;;;;;;;;;;;20.86;100.00;97505.13;5143566;27;19998;-71
2023/08/05 03:08:27;;;;;;;;;;;;;;;20.95;100.00;97516.69;5140111;27;19931;-71
2023/08/05 03:10:57;;;;;;;;;;;;;;;21.00;100.00;97527.31;5140040;27;19931;-71
2023/08/05 03:13:23;;;;;;;;;;;;;;;20.45;100.00;97528.63;5143696;27;19949;-71
2023/08/05 03:15:49;;;;;;;;;;;;;;;20.57;100.00;97529.75;5136144;27;19989;-71
2023/08/05 03:18:16;;;;;;;;;;;;;;;20.79;100.00;97521.19;5140000;27;19923;-71
2023/08/05 03:20:42;;;;;;;;;;;;;;;20.84;100.00;97518.25;5139707;27;19995;-71
2023/08/05 03:23:08;;;;;;;;;;;;;;;20.85;100.00;97519.84;5123024;28;19969;-71
2023/08/05 03:25:36;;;;;;;;;;;;;;;20.76;100.00;97516.44;5143435;27;19951;-71
2023/08/05 03:28:03;;;;;;;;;;;;;;;20.79;100.00;97522.00;5124406;27;20471;-71
2023/08/05 03:30:29;;;;;;;;;;;;;;;20.85;100.00;97533.41;5139767;27;19923;-71
2023/08/05 03:32:55;;;;;;;;;;;;;;;21.02;100.00;97541.31;5139581;28;20053;-71
2023/08/05 03:35:22;;;;;;;;;;;;;;;20.96;100.00;97542.69;5142687;28;19923;-71
2023/08/05 03:37:48;;;;;;;;;;;;;;;20.93;100.00;97546.88;5143052;28;19923;-71
2023/08/05 03:40:14;;;;;;;;;;;;;;;20.95;100.00;97535.69;5140961;28;19949;-71
2023/08/05 03:42:42;;;;;;;;;;;;;;;20.51;100.00;97536.53;5139586;28;19934;-71
2023/08/05 03:45:09;;;;;;;;;;;;;;;20.65;100.00;97537.78;5121194;28;19955;-71
2023/08/05 03:47:36;;;;;;;;;;;;;;;20.28;100.00;97539.63;5136290;28;20362;-71
2023/08/05 03:50:02;;;;;;;;;;;;;;;20.62;100.00;97540.38;5142434;28;19923;-71
2023/08/05 03:52:29;;;;;;;;;;;;;;;20.37;100.00;97543.06;5139551;28;19935;-71
2023/08/05 03:54:55;;;;;;;;;;;;;;;20.57;100.00;97548.75;5139386;28;19969;-71
2023/08/05 03:57:21;;;;;;;;;;;;;;;20.59;100.00;97541.84;5146488;27;19928;-71
2023/08/05 03:59:49;;;;;;;;;;;;;;;20.70;100.00;97545.72;5147329;27;19953;-71
2023/08/05 04:02:16;;;;;;;;;;;;;;;20.72;100.00;97548.09;5144547;27;19945;-71
2023/08/05 04:04:43;;;;;;;;;;;;;;;20.73;100.00;97539.63;5143362;27;20011;-71
2023/08/05 04:07:09;;;;;;;;;;;;;;;20.64;100.00;97551.72;5126383;27;19930;-70
2023/08/05 04:09:36;;;;;;;;;;;;;;;20.63;100.00;97542.78;5147057;27;19923;-71
2023/08/05 04:12:05;;;;;;;;;;;;;;;20.52;100.00;97544.31;5146515;27;19933;-72
2023/08/05 04:14:31;;;;;;;;;;;;;;;20.54;100.00;97542.09;5143505;27;20019;-72
2023/08/05 04:17:02;;;;;;;;;;;;;;;20.62;100.00;97551.25;5134867;28;19924;-71
2023/08/05 04:19:29;;;;;;;;;;;;;;;20.36;100.00;97537.97;5134733;28;19959;-71
2023/08/05 04:21:55;;;;;;;;;;;;;;;20.55;100.00;97554.50;5134810;28;20049;-70
2023/08/05 04:24:24;;;;;;;;;;;;;;;20.37;100.00;97543.06;5124900;28;19927;-71
2023/08/05 04:26:51;;;;;;;;;;;;;;;20.44;100.00;97539.78;5134423;28;19948;-71
2023/08/05 04:29:18;;;;;;;;;;;;;;;20.38;100.00;97544.63;5123876;28;19930;-71
2023/08/05 04:31:45;;;;;;;;;;;;;;;20.54;100.00;97546.72;5134332;28;20026;-71
2023/08/05 04:34:12;;;;;;;;;;;;;;;20.64;100.00;97536.19;5144711;27;19928;-71
2023/08/05 04:36:39;;;;;;;;;;;;;;;20.68;100.00;97544.47;5146323;27;19977;-71
2023/08/05 04:39:06;;;;;;;;;;;;;;;20.78;100.00;97533.97;5145447;27;19924;-71
2023/08/05 04:41:33;;;;;;;;;;;;;;;20.88;100.00;97544.41;5142722;27;20014;-71
2023/08/05 04:43:59;;;;;;;;;;;;;;;20.78;100.00;97541.31;5142686;27;19931;-71
2023/08/05 04:46:25;;;;;;;;;;;;;;;20.64;100.00;97547.06;5141813;27;19935;-71
2023/08/05 04:48:52;;;;;;;;;;;;;;;20.73;100.00;97549.69;5142577;27;19962;-71
2023/08/05 04:51:19;;;;;;;;;;;;;;;20.61;100.00;97552.38;5145566;27;19945;-71
2023/08/05 04:53:46;;;;;;;;;;;;;;;20.76;100.00;97549.00;5146124;27;19924;-71
2023/08/05 04:56:12;;;;;;;;;;;;;;;20.50;100.00;97546.59;5144177;27;20193;-71
2023/08/05 04:58:39;;;;;;;;;;;;;;;20.27;100.00;97539.97;5142693;27;19931;-71
2023/08/05 05:01:05;;;;;;;;;;;;;;;20.46;100.00;97541.03;5143332;27;19924;-71
2023/08/05 05:03:31;;;;;;;;;;;;;;;20.65;100.00;97548.66;5127457;27;19927;-70
2023/08/05 05:05:58;;;;;;;;;;;;;;;20.71;100.00;97541.06;5145631;27;19965;-71
2023/08/05 05:08:25;;;;;;;;;;;;;;;20.52;100.00;97540.84;5133435;28;20030;-70
2023/08/05 05:10:52;;;;;;;;;;;;;;;20.41;100.00;97543.19;5133759;28;19970;-71
2023/08/05 05:13:18;;;;;;;;;;;;;;;20.61;100.00;97536.88;5133359;28;19951;-71
2023/08/05 05:15:44;;;;;;;;;;;;;;;20.65;100.00;97531.56;5133614;28;20022;-71
2023/08/05 05:18:11;;;;;;;;;;;;;;;20.67;100.00;97530.13;5133523;28;19928;-71
2023/08/05 05:20:37;;;;;;;;;;;;;;;20.79;100.00;97527.44;5133535;28;19946;-71
2023/08/05 05:23:03;;;;;;;;;;;;;;;20.65;100.00;97531.56;5133299;28;20362;-71
2023/08/05 05:25:31;;;;;;;;;;;;;;;20.60;100.00;97534.50;5133290;28;19927;-71
2023/08/05 05:27:58;;;;;;;;;;;;;;;20.31;100.00;97514.56;5133324;28;19946;-71
2023/08/05 05:30:24;;;;;;;;;;;;;;;20.30;100.00;97506.78;5136922;27;19924;-71
2023/08/05 05:32:50;;;;;;;;;;;;;;;20.08;100.00;97505.22;5145717;27;19959;-71
2023/08/05 05:35:17;;;;;;;;;;;;;;;20.13;100.00;97505.00;5124420;27;19924;-71
2023/08/05 05:37:43;;;;;;;;;;;;;;;20.13;100.00;97499.56;5141931;27;19990;-71
2023/08/05 05:40:10;;;;;;;;;;;;;;;19.99;100.00;97507.22;5126282;27;19983;-71
2023/08/05 05:42:37;;;;;;;;;;;;;;;20.13;100.00;97510.41;5146246;27;19973;-71
2023/08/05 05:45:04;;;;;;;;;;;;;;;20.18;100.00;97512.91;5144986;27;19924;-71
2023/08/05 05:47:30;;;;;;;;;;;;;;;20.17;100.00;97503.22;5138204;27;20050;-71
2023/08/05 05:49:57;;;;;;;;;;;;;;;19.67;100.00;97513.38;5127749;27;19923;-71
2023/08/05 05:52:23;;;;;;;;;;;;;;;19.88;100.00;97503.31;5142845;27;19963;-71
2023/08/05 05:54:49;;;;;;;;;;;;;;;19.78;100.00;97520.78;5142337;27;19924;-71
2023/08/05 05:57:16;;;;;;;;;;;;;;;20.08;100.00;97526.91;5144179;27;19955;-71
2023/08/05 05:59:43;;;;;;;;;;;;;;;20.08;100.00;97534.22;5126767;27;19979;-71
2023/08/05 06:02:10;;;;;;;;;;;;;;;20.03;100.00;97532.50;5143355;27;19923;-71
2023/08/05 06:04:36;;;;;;;;;;;;;;;20.16;100.00;97527.94;5141298;27;19959;-71
2023/08/05 06:07:03;;;;;;;;;;;;;;;19.94;100.00;97534.50;5141737;27;19959;-71
2023/08/05 06:09:31;;;;;;;;;;;;;;;20.10;100.00;97543.63;5126340;27;19923;-71
2023/08/05 06:11:57;;;;;;;;;;;;;;;20.06;100.00;97539.97;5144743;27;19923;-71
2023/08/05 06:14:23;;;;;;;;;;;;;;;20.20;100.00;97548.63;5141049;27;20386;-71
2023/08/05 06:16:51;;;;;;;;;;;;;;;20.20;100.00;97558.69;5132449;28;19930;-71
2023/08/05 06:19:17;;;;;;;;;;;;;;;20.04;100.00;97555.00;5142619;27;19995;-71
2023/08/05 06:21:44;;;;;;;;;;;;;;;20.00;100.00;97540.50;5144258;27;19958;-71
2023/08/05 06:24:10;;;;;;;;;;;;;;;19.89;100.00;97535.53;5142731;27;20006;-72
2023/08/05 06:26:36;;;;;;;;;;;;;;;19.62;100.00;97538.75;5140780;27;19924;-71
2023/08/05 06:29:03;;;;;;;;;;;;;;;19.68;100.00;97536.66;5122993;27;19924;-72
2023/08/05 06:31:30;;;;;;;;;;;;;;;19.88;100.00;97539.34;5144168;27;19924;-72
2023/08/05 06:33:58;;;;;;;;;;;;;;;20.03;100.00;97547.97;5125902;27;20274;-71
2023/08/05 06:36:24;;;;;;;;;;;;;;;19.82;100.00;97548.00;5140626;27;19972;-71
2023/08/05 06:38:50;;;;;;;;;;;;;;;20.00;100.00;97554.84;5140465;27;19974;-72
2023/08/05 06:41:17;;;;;;;;;;;;;;;20.27;100.00;97554.31;5142991;27;19942;-72
2023/08/05 06:43:43;;;;;;;;;;;;;;;20.31;100.00;97559.84;5144027;27;19950;-72
2023/08/05 06:46:10;;;;;;;;;;;;;;;20.31;100.00;97559.84;5133689;27;19924;-72
2023/08/05 06:48:36;;;;;;;;;;;;;;;20.34;100.00;97556.47;5140236;27;20353;-72
2023/08/05 06:51:04;;;;;;;;;;;;;;;20.12;100.00;97564.94;5140939;27;20018;-72
2023/08/05 06:53:30;;;;;;;;;;;;;;;20.36;100.00;97552.31;5143827;27;19999;-72
2023/08/05 06:56:00;;;;;;;;;;;;;;;20.52;100.00;97546.25;5143978;27;19924;-72
2023/08/05 06:58:26;;;;;;;;;;;;;;;20.51;100.00;97536.53;5140615;27;19993;-72
2023/08/05 07:00:53;;;;;;;;;;;;;;;20.42;100.00;97542.06;5140235;27;19978;-72
2023/08/05 07:03:19;;;;;;;;;;;;;;;20.45;100.00;97544.09;5143011;27;19927;-72
2023/08/05 07:05:46;;;;;;;;;;;;;;;20.31;100.00;97544.38;5143836;27;19965;-72
2023/08/05 07:08:13;;;;;;;;;;;;;;;20.36;100.00;97536.03;5142025;27;19957;-72
2023/08/05 07:10:40;;;;;;;;;;;;;;;20.26;100.00;97544.59;5140118;27;19963;-72
2023/08/05 07:13:07;;;;;;;;;;;;;;;20.29;100.00;97545.84;5140954;27;19962;-72
2023/08/05 07:15:35;;;;;;;;;;;;;;;20.43;100.00;97547.13;5138620;27;19994;-72
2023/08/05 07:18:02;;;;;;;;;;;;;;;20.46;100.00;97535.63;5139946;27;19946;-72
2023/08/05 07:20:28;;;;;;;;;;;;;;;20.60;100.00;97548.88;5104574;28;19928;-72
2023/08/05 07:22:55;;;;;;;;;;;;;;;20.66;100.00;97539.38;5139834;27;20380;-72
2023/08/05 07:25:22;;;;;;;;;;;;;;;20.65;100.00;97547.84;5143097;27;19990;-72
2023/08/05 07:27:49;;;;;;;;;;;;;;;20.71;100.00;97546.50;5143305;27;19923;-71
2023/08/05 07:30:15;;;;;;;;;;;;;;;20.52;100.00;97551.69;5140561;27;19924;-72
2023/08/05 07:32:42;;;;;;;;;;;;;;;20.54;100.00;97557.56;5121135;28;20182;-71
2023/08/05 07:35:09;;;;;;;;;;;;;;;20.48;100.00;97548.06;5140777;28;20010;-71
2023/08/05 07:37:35;;;;;;;;;;;;;;;20.49;100.00;97552.38;5143358;28;19955;-71
2023/08/05 07:40:04;;;;;;;;;;;;;;;20.36;100.00;97552.31;5142733;28;19928;-72
2023/08/05 07:42:34;;;;;;;;;;;;;;;20.48;100.00;97548.06;5139699;28;19977;-72
2023/08/05 07:45:04;;;;;;;;;;;;;;;20.58;100.00;97563.91;5121361;28;19923;-72
2023/08/05 07:47:33;;;;;;;;;;;;;;;20.74;100.00;97562.09;5112718;28;19963;-72
2023/08/05 07:50:00;;;;;;;;;;;;;;;20.73;100.00;97571.41;5121121;28;19935;-72
2023/08/05 07:52:27;;;;;;;;;;;;;;;20.66;100.00;97566.53;5143187;28;19930;-72
2023/08/05 07:54:53;;;;;;;;;;;;;;;20.43;100.00;97573.47;5143121;28;19923;-72
2023/08/05 07:57:19;;;;;;;;;;;;;;;20.38;100.00;97565.53;5140017;28;19991;-72
2023/08/05 07:59:47;;;;;;;;;;;;;;;20.55;100.00;97570.00;5139108;28;19931;-72
2023/08/05 08:02:14;;;;;;;;;;;;;;;20.52;100.00;97570.69;5141211;28;20468;-72
2023/08/05 08:04:40;;;;;;;;;;;;;;;20.45;100.00;97569.31;5142917;28;19924;-72
2023/08/05 08:07:08;;;;;;;;;;;;;;;20.38;100.00;97569.06;5141877;28;19928;-72
2023/08/05 08:09:35;;;;;;;;;;;;;;;20.43;100.00;97568.84;5139440;28;19924;-72
2023/08/05 08:12:01;;;;;;;;;;;;;;;20.41;100.00;97568.38;5139715;28;19951;-72
2023/08/05 08:14:27;;;;;;;;;;;;;;;20.22;100.00;97564.56;5143054;28;19934;-72
2023/08/05 08:16:55;;;;;;;;;;;;;;;20.40;100.00;97557.84;5116708;28;19924;-72
2023/08/05 08:19:22;;;;;;;;;;;;;;;20.46;100.00;97559.22;5142506;28;19923;-72
2023/08/05 08:21:49;;;;;;;;;;;;;;;20.51;100.00;97552.81;5142942;28;19944;-72
2023/08/05 08:24:15;;;;;;;;;;;;;;;20.52;100.00;97552.47;5140509;28;19954;-72
2023/08/05 08:26:42;;;;;;;;;;;;;;;20.43;100.00;97552.56;5139193;28;19971;-72
2023/08/05 08:29:08;;;;;;;;;;;;;;;20.29;100.00;97548.56;5122249;28;19924;-72
2023/08/05 08:31:34;;;;;;;;;;;;;;;20.21;100.00;97552.13;5142948;28;19930;-72
2023/08/05 08:34:02;;;;;;;;;;;;;;;20.20;100.00;97562.19;5142472;28;19923;-72
2023/08/05 08:36:28;;;;;;;;;;;;;;;20.12;100.00;97568.47;5139242;28;20011;-72
2023/08/05 08:38:55;;;;;;;;;;;;;;;20.19;100.00;97576.06;5139341;28;19924;-72
2023/08/05 08:41:21;;;;;;;;;;;;;;;20.27;100.00;97577.94;5124522;27;20301;-72
2023/08/05 08:43:48;;;;;;;;;;;;;;;20.49;100.00;97576.78;5128248;27;19924;-72
2023/08/05 08:46:15;;;;;;;;;;;;;;;20.56;100.00;97571.56;5135923;27;19959;-72
2023/08/05 08:48:42;;;;;;;;;;;;;;;20.39;100.00;97567.13;5143097;27;20023;-72
2023/08/05 08:51:10;;;;;;;;;;;;;;;20.29;100.00;97556.69;5144322;27;20389;-72
2023/08/05 08:53:37;;;;;;;;;;;;;;;20.27;100.00;97564.38;5146468;27;19975;-72
2023/08/05 08:56:03;;;;;;;;;;;;;;;20.25;100.00;97561.16;5145906;27;19930;-72
2023/08/05 08:58:29;;;;;;;;;;;;;;;20.46;100.00;97573.59;5142949;27;19923;-72
2023/08/05 09:00:57;;;;;;;;;;;;;;;20.40;100.00;97557.84;5143100;27;19959;-72
2023/08/05 09:03:25;;;;;;;;;;;;;;;20.41;100.00;97565.66;5146199;27;19938;-72
2023/08/05 09:05:54;;;;;;;;;;;;;;;20.26;100.00;97560.09;5146231;27;20389;-72
2023/08/05 09:08:22;;;;;;;;;;;;;;;20.08;100.00;97564.84;5124726;27;19987;-72
2023/08/05 09:10:49;;;;;;;;;;;;;;;20.04;100.00;97572.06;5142452;27;19997;-72
2023/08/05 09:13:16;;;;;;;;;;;;;;;20.07;100.00;97565.97;5144339;27;19973;-72
2023/08/05 09:15:43;;;;;;;;;;;;;;;20.19;100.00;97576.06;5139769;27;19924;-72
2023/08/05 09:18:09;;;;;;;;;;;;;;;20.32;100.00;97564.97;5142241;27;20021;-72
2023/08/05 09:20:36;;;;;;;;;;;;;;;20.48;100.00;97558.91;5142420;27;19949;-72
2023/08/05 09:23:04;;;;;;;;;;;;;;;20.36;100.00;97563.16;5142612;27;19992;-72
2023/08/05 09:25:32;;;;;;;;;;;;;;;20.36;100.00;97563.16;5145836;27;19953;-72
2023/08/05 09:28:00;;;;;;;;;;;;;;;20.31;100.00;97571.50;5145623;27;19923;-71
2023/08/05 09:30:27;;;;;;;;;;;;;;;20.18;100.00;97564.41;5133616;28;19924;-71
2023/08/05 09:32:54;;;;;;;;;;;;;;;20.31;100.00;97566.09;5133414;28;20086;-71
2023/08/05 09:35:20;;;;;;;;;;;;;;;20.17;100.00;97568.28;5133422;28;19924;-72
2023/08/05 09:37:48;;;;;;;;;;;;;;;20.16;100.00;97574.00;5123668;28;20304;-73
2023/08/05 09:40:15;;;;;;;;;;;;;;;20.09;100.00;97579.16;5133385;28;20836;-72
2023/08/05 09:42:47;;;;;;;;;;;;;;;20.10;100.00;97576.16;5133456;28;19978;-72
2023/08/05 09:45:15;;;;;;;;;;;;;;;20.09;100.00;97574.53;5123460;28;19927;-72
2023/08/05 09:47:42;;;;;;;;;;;;;;;20.24;100.00;97576.63;5126293;27;19930;-72
2023/08/05 09:50:12;;;;;;;;;;;;;;;20.26;100.00;97574.44;5126109;27;19924;-72
2023/08/05 09:52:39;;;;;;;;;;;;;;;20.49;100.00;97579.50;5152899;27;19924;-72
2023/08/05 09:55:10;;;;;;;;;;;;;;;20.61;100.00;97579.53;5151932;27;19930;-72
2023/08/05 09:57:37;;;;;;;;;;;;;;;20.37;100.00;97559.31;5141647;27;19938;-72
2023/08/05 10:00:08;;;;;;;;;;;;;;;20.10;100.00;97570.72;5123843;27;19924;-71
2023/08/05 10:02:35;;;;;;;;;;;;;;;20.22;100.00;97557.22;5144993;27;19973;-71
2023/08/05 10:05:02;;;;;;;;;;;;;;;20.30;100.00;97553.63;5144728;27;19949;-71
2023/08/05 10:07:29;;;;;;;;;;;;;;;20.26;100.00;97549.25;5141321;27;19995;-72
2023/08/05 10:09:56;;;;;;;;;;;;;;;20.01;100.00;97551.03;5141176;27;19931;-72
2023/08/05 10:12:25;;;;;;;;;;;;;;;19.77;100.00;97545.50;5144378;27;19927;-72
2023/08/05 10:14:52;;;;;;;;;;;;;;;19.82;100.00;97548.00;5144712;27;19934;-72
2023/08/05 10:17:21;;;;;;;;;;;;;;;20.00;100.00;97551.34;5135528;27;19959;-72
2023/08/05 10:19:48;;;;;;;;;;;;;;;20.16;100.00;97546.91;5144471;27;19924;-72
2023/08/05 10:22:14;;;;;;;;;;;;;;;20.11;100.00;97545.22;5142332;27;19999;-72
2023/08/05 10:24:50;;;;;;;;;;;;;;;19.99;100.00;97545.16;5140888;27;19946;-72
2023/08/05 10:27:16;;;;;;;;;;;;;;;20.09;100.00;97536.59;5143229;27;20023;-71
2023/08/05 10:29:51;;;;;;;;;;;;;;;19.88;100.00;97546.69;5144390;27;19962;-71
2023/08/05 10:32:18;;;;;;;;;;;;;;;19.82;100.00;97542.59;5141684;27;19923;-71
2023/08/05 10:35:05;;;;;;;;;;;;;;;19.81;100.00;97546.41;5140731;27;20091;-71
2023/08/05 10:37:46;;;;;;;;;;;;;;;20.10;100.00;97546.31;5140417;27;19924;-72
2023/08/05 10:40:13;;;;;;;;;;;;;;;20.25;100.00;97542.19;5142363;27;19924;-72
2023/08/05 10:42:39;;;;;;;;;;;;;;;20.32;100.00;97540.56;5125763;27;19923;-72
2023/08/05 10:45:06;;;;;;;;;;;;;;;20.31;100.00;97536.25;5142655;27;19983;-72
2023/08/05 10:47:33;;;;;;;;;;;;;;;20.45;100.00;97536.75;5136802;27;19931;-72
2023/08/05 10:50:01;;;;;;;;;;;;;;;20.51;100.00;97537.31;5144002;27;19955;-72
2023/08/05 10:52:27;;;;;;;;;;;;;;;20.41;100.00;97525.00;5131835;28;19971;-72
2023/08/05 10:54:54;;;;;;;;;;;;;;;20.32;100.00;97529.72;5113532;28;19923;-71
2023/08/05 10:57:44;;;;;;;;;;;;;;;20.38;100.00;97522.94;5131542;28;19927;-72
2023/08/05 11:00:17;;;;;;;;;;;;;;;20.26;100.00;97522.13;5131734;28;19923;-70
2023/08/05 11:02:44;;;;;;;;;;;;;;;20.39;100.00;97524.50;5121886;28;19923;-71
2023/08/05 11:05:11;;;;;;;;;;;;;;;20.39;100.00;97519.09;5139735;27;19949;-71
2023/08/05 11:07:38;;;;;;;;;;;;;;;20.46;100.00;97513.13;5121994;28;19924;-71
2023/08/05 11:10:05;;;;;;;;;;;;;;;20.46;100.00;97511.19;5122435;28;19927;-71
2023/08/05 11:12:31;;;;;;;;;;;;;;;20.33;100.00;97509.56;5143572;27;19924;-72
2023/08/05 11:14:59;;;;;;;;;;;;;;;20.41;100.00;97508.72;5143389;27;19919;-72
2023/08/05 11:17:26;;;;;;;;;;;;;;;20.36;100.00;97502.72;5131525;28;19924;-72
2023/08/05 11:19:52;;;;;;;;;;;;;;;20.44;100.00;97499.91;5131608;28;19924;-72
2023/08/05 11:22:24;;;;;;;;;;;;;;;20.34;100.00;97500.31;5131526;28;19924;-72
2023/08/05 11:24:55;;;;;;;;;;;;;;;20.30;100.00;97493.97;5113242;28;19924;-72
2023/08/05 11:27:28;;;;;;;;;;;;;;;20.53;100.00;97488.94;5131128;28;19923;-72
2023/08/05 11:29:55;;;;;;;;;;;;;;;20.64;100.00;97481.16;5131527;28;19927;-73
2023/08/05 11:32:21;;;;;;;;;;;;;;;20.84;100.00;97482.97;5131427;28;19923;-73
2023/08/05 11:34:49;;;;;;;;;;;;;;;20.86;100.00;97477.97;5131397;28;19924;-72
2023/08/05 11:37:15;;;;;;;;;;;;;;;20.86;100.00;97472.56;5131306;28;19928;-72
2023/08/05 11:39:43;;;;;;;;;;;;;;;20.72;100.00;97472.13;5131316;28;19967;-72
2023/08/05 11:42:10;;;;;;;;;;;;;;;20.74;100.00;97476.06;5131249;28;19972;-72
2023/08/05 11:44:36;;;;;;;;;;;;;;;20.76;100.00;97465.69;5131365;28;19924;-72
2023/08/05 11:47:03;;;;;;;;;;;;;;;20.88;100.00;97464.88;5140212;28;19924;-72
2023/08/05 11:49:30;;;;;;;;;;;;;;;20.85;100.00;97460.94;5143282;28;19924;-72
2023/08/05 11:51:56;;;;;;;;;;;;;;;20.86;100.00;97464.41;5143424;28;19923;-72
2023/08/05 11:54:28;;;;;;;;;;;;;;;20.91;100.00;97458.78;5140101;28;19933;-71
2023/08/05 11:56:56;;;;;;;;;;;;;;;20.88;100.00;97454.03;5121166;28;19924;-71
2023/08/05 11:59:38;;;;;;;;;;;;;;;20.78;100.00;97446.34;5142728;28;19964;-71
2023/08/05 12:02:04;;;;;;;;;;;;;;;20.75;100.00;97445.09;5142410;28;19924;-72
2023/08/05 12:04:31;;;;;;;;;;;;;;;20.81;100.00;97442.94;5139565;28;19923;-71
2023/08/05 12:06:57;;;;;;;;;;;;;;;20.93;100.00;97442.94;5139406;28;19979;-72
2023/08/05 12:09:24;;;;;;;;;;;;;;;20.94;100.00;97441.81;5142776;28;19924;-72
2023/08/05 12:11:57;;;;;;;;;;;;;;;21.12;100.00;97434.22;5142903;28;20000;-72
2023/08/05 12:14:25;;;;;;;;;;;;;;;21.16;100.00;97433.22;5139431;28;19924;-72
2023/08/05 12:16:52;;;;;;;;;;;;;;;21.21;100.00;97441.09;5132060;28;19924;-71
2023/08/05 12:19:19;;;;;;;;;;;;;;;21.23;100.00;97432.63;5145862;27;19972;-71
2023/08/05 12:21:45;;;;;;;;;;;;;;;21.22;100.00;97437.25;5146903;27;19934;-72
2023/08/05 12:24:11;;;;;;;;;;;;;;;21.22;100.00;97420.97;5145236;27;19924;-72
2023/08/05 12:26:38;;;;;;;;;;;;;;;21.37;100.00;97427.59;5143520;27;19959;-72
2023/08/05 12:29:05;;;;;;;;;;;;;;;21.43;100.00;97421.59;5143887;27;19970;-72
2023/08/05 12:31:32;;;;;;;;;;;;;;;21.24;100.00;97426.84;5128430;27;19959;-72
2023/08/05 12:33:59;;;;;;;;;;;;;;;21.35;100.00;97417.06;5146599;27;19934;-71